createdAt,value
2023-04-23T00:01:11.976Z,14.95
2023-04-23T00:03:45.732Z,18.83
2023-04-23T00:06:20.470Z,18.48
2023-04-23T00:08:54.395Z,21.92
2023-04-23T00:11:27.203Z,21.25
2023-04-23T00:13:59.304Z,27.35
2023-04-23T00:16:40.588Z,25.35
2023-04-23T00:19:14.799Z,20.48
2023-04-23T00:24:19.385Z,24.95
2023-04-23T00:26:52.224Z,26.58
2023-04-23T00:29:24.192Z,22.45
2023-04-23T00:31:56.980Z,17.77
2023-04-23T00:34:30.356Z,21.60
2023-04-23T00:37:07.706Z,18.08
2023-04-23T00:39:40.407Z,17.52
2023-04-23T00:42:15.635Z,19.00
2023-04-23T00:44:47.343Z,19.92
2023-04-23T00:47:22.815Z,18.38
2023-04-23T00:49:57.258Z,21.52
2023-04-23T00:52:27.548Z,17.38
2023-04-23T00:54:57.885Z,14.93
2023-04-23T00:57:28.656Z,17.08
2023-04-23T00:59:59.483Z,16.98
2023-04-23T01:02:31.787Z,19.73
2023-04-23T01:05:03.163Z,10.27
2023-04-23T01:07:36.029Z,15.57
2023-04-23T01:10:06.469Z,13.40
2023-04-23T01:12:36.190Z,18.55
2023-04-23T01:15:07.152Z,18.35
2023-04-23T01:17:36.176Z,17.17
2023-04-23T01:20:07.866Z,17.75
2023-04-23T01:22:39.612Z,14.70
2023-04-23T01:25:09.462Z,15.73
2023-04-23T01:27:39.925Z,21.40
2023-04-23T01:30:10.335Z,19.52
2023-04-23T01:32:40.626Z,20.80
2023-04-23T01:35:11.559Z,12.20
2023-04-23T01:37:41.512Z,21.83
2023-04-23T01:40:11.263Z,31.20
2023-04-23T01:42:42.234Z,16.65
2023-04-23T01:45:11.807Z,15.80
2023-04-23T01:47:43.080Z,12.05
2023-04-23T01:50:12.378Z,11.48
2023-04-23T01:52:42.416Z,14.20
2023-04-23T01:55:12.090Z,19.35
2023-04-23T01:57:41.651Z,15.38
2023-04-23T02:00:13.979Z,14.00
2023-04-23T02:02:45.245Z,11.88
2023-04-23T02:05:18.157Z,14.82
2023-04-23T02:07:50.213Z,11.40
2023-04-23T02:10:19.722Z,17.40
2023-04-23T02:12:50.195Z,21.05
2023-04-23T02:15:20.847Z,8.80
2023-04-23T02:17:52.470Z,13.32
2023-04-23T02:20:22.765Z,9.85
2023-04-23T02:22:52.138Z,13.88
2023-04-23T02:25:23.002Z,15.52
2023-04-23T02:27:52.036Z,20.40
2023-04-23T02:30:21.190Z,15.40
2023-04-23T02:32:51.333Z,19.23
2023-04-23T02:35:20.932Z,11.35
2023-04-23T02:37:50.106Z,14.50
2023-04-23T02:40:19.264Z,13.80
2023-04-23T02:42:48.433Z,12.70
2023-04-23T02:45:18.137Z,21.55
2023-04-23T02:47:47.159Z,16.00
2023-04-23T02:50:17.560Z,15.18
2023-04-23T02:52:47.337Z,12.25
2023-04-23T02:55:16.559Z,10.50
2023-04-23T02:57:46.672Z,15.23
2023-04-23T03:00:16.470Z,28.27
2023-04-23T03:02:46.052Z,36.47
2023-04-23T03:05:15.451Z,35.05
2023-04-23T03:07:44.289Z,11.27
2023-04-23T03:10:13.393Z,17.98
2023-04-23T03:12:42.548Z,11.13
2023-04-23T03:15:12.794Z,13.40
2023-04-23T03:17:42.790Z,7.50
2023-04-23T03:20:15.765Z,5.47
2023-04-23T03:22:45.300Z,10.10
2023-04-23T03:25:14.758Z,13.93
2023-04-23T03:27:45.167Z,12.65
2023-04-23T03:30:14.666Z,10.75
2023-04-23T03:32:43.457Z,9.63
2023-04-23T03:35:14.110Z,15.65
2023-04-23T03:37:47.502Z,20.10
2023-04-23T03:40:17.488Z,18.33
2023-04-23T03:42:49.671Z,11.05
2023-04-23T03:45:21.467Z,10.03
2023-04-23T03:47:50.867Z,17.73
2023-04-23T03:50:20.698Z,8.88
2023-04-23T03:53:00.273Z,10.70
2023-04-23T03:55:49.225Z,12.43
2023-04-23T03:58:18.965Z,14.02
2023-04-23T04:00:49.195Z,12.98
2023-04-23T04:03:18.794Z,14.57
2023-04-23T04:05:48.685Z,26.30
2023-04-23T04:08:17.674Z,8.02
2023-04-23T04:10:47.060Z,11.82
2023-04-23T04:13:17.164Z,12.95
2023-04-23T04:15:46.217Z,14.93
2023-04-23T04:18:15.862Z,11.20
2023-04-23T04:20:46.435Z,10.13
2023-04-23T04:23:15.668Z,12.45
2023-04-23T04:25:44.499Z,14.93
2023-04-23T04:28:13.688Z,8.07
2023-04-23T04:30:43.797Z,11.73
2023-04-23T04:33:12.825Z,11.55
2023-04-23T04:35:41.765Z,11.18
2023-04-23T04:38:10.912Z,9.63
2023-04-23T04:40:40.007Z,7.30
2023-04-23T04:43:08.965Z,8.35
2023-04-23T04:45:37.946Z,9.88
2023-04-23T04:48:06.890Z,7.55
2023-04-23T04:50:36.584Z,13.90
2023-04-23T04:53:05.446Z,15.65
2023-04-23T04:55:34.417Z,6.75
2023-04-23T04:58:03.598Z,12.13
2023-04-23T05:00:32.777Z,6.38
2023-04-23T05:03:02.209Z,9.13
2023-04-23T05:05:34.436Z,9.10
2023-04-23T05:08:04.883Z,19.42
2023-04-23T05:10:33.921Z,7.70
2023-04-23T05:13:02.797Z,5.03
2023-04-23T05:15:34.073Z,9.45
2023-04-23T05:18:08.777Z,4.75
2023-04-23T05:20:39.541Z,5.22
2023-04-23T05:23:08.521Z,11.60
2023-04-23T05:25:37.394Z,5.28
2023-04-23T05:28:06.623Z,7.80
2023-04-23T05:30:35.580Z,9.45
2023-04-23T05:33:04.956Z,5.45
2023-04-23T05:35:34.251Z,18.30
2023-04-23T05:38:03.737Z,4.85
2023-04-23T05:40:32.927Z,24.55
2023-04-23T05:43:02.345Z,18.65
2023-04-23T05:45:32.818Z,10.48
2023-04-23T05:48:02.225Z,4.25
2023-04-23T05:50:31.519Z,6.45
2023-04-23T05:53:00.498Z,12.27
2023-04-23T05:55:29.994Z,15.40
2023-04-23T05:57:59.097Z,7.35
2023-04-23T06:00:28.137Z,12.43
2023-04-23T06:02:57.371Z,6.75
2023-04-23T06:05:26.875Z,16.70
2023-04-23T06:07:55.867Z,9.40
2023-04-23T06:10:25.112Z,15.23
2023-04-23T06:12:56.354Z,3.33
2023-04-23T06:15:28.077Z,8.63
2023-04-23T06:17:57.419Z,5.35
2023-04-23T06:20:27.046Z,11.48
2023-04-23T06:22:56.168Z,3.85
2023-04-23T06:25:25.092Z,15.25
2023-04-23T06:27:54.279Z,14.07
2023-04-23T06:30:26.718Z,3.80
2023-04-23T06:32:55.922Z,3.08
2023-04-23T06:35:25.024Z,20.13
2023-04-23T06:37:54.571Z,14.43
2023-04-23T06:40:23.676Z,29.17
2023-04-23T06:42:53.009Z,5.32
2023-04-23T06:45:39.296Z,6.85
2023-04-23T06:48:08.744Z,9.40
2023-04-23T06:50:37.723Z,11.35
2023-04-23T06:53:07.258Z,9.20
2023-04-23T06:55:37.195Z,6.82
2023-04-23T06:58:08.152Z,5.13
2023-04-23T07:00:37.406Z,13.88
2023-04-23T07:03:06.699Z,16.25
2023-04-23T07:05:35.806Z,13.45
2023-04-23T07:08:04.770Z,10.93
2023-04-23T07:10:33.974Z,7.18
2023-04-23T07:13:03.255Z,8.75
2023-04-23T07:15:32.519Z,5.15
2023-04-23T07:18:01.681Z,3.85
2023-04-23T07:20:31.612Z,11.75
2023-04-23T07:23:01.620Z,4.45
2023-04-23T07:25:31.073Z,17.33
2023-04-23T07:28:00.248Z,3.67
2023-04-23T07:30:30.105Z,8.05
2023-04-23T07:32:59.539Z,8.85
2023-04-23T07:35:28.512Z,13.30
2023-04-23T07:37:58.973Z,8.90
2023-04-23T07:40:28.799Z,13.60
2023-04-23T07:43:00.212Z,13.40
2023-04-23T07:45:30.737Z,13.27
2023-04-23T07:48:00.519Z,6.22
2023-04-23T07:50:31.426Z,3.50
2023-04-23T07:53:00.418Z,7.00
2023-04-23T07:55:29.380Z,5.88
2023-04-23T07:57:58.633Z,5.50
2023-04-23T08:00:28.905Z,13.73
2023-04-23T08:03:01.562Z,17.17
2023-04-23T08:05:31.336Z,7.15
2023-04-23T08:08:00.638Z,10.70
2023-04-23T08:10:30.276Z,10.35
2023-04-23T08:12:59.220Z,13.63
2023-04-23T08:15:28.456Z,26.95
2023-04-23T08:17:58.942Z,3.45
2023-04-23T08:20:28.823Z,6.20
2023-04-23T08:22:57.704Z,7.50
2023-04-23T08:25:26.802Z,8.32
2023-04-23T08:27:55.851Z,13.45
2023-04-23T08:30:24.926Z,11.40
2023-04-23T08:32:57.753Z,6.15
2023-04-23T08:35:26.810Z,8.02
2023-04-23T08:37:55.786Z,4.85
2023-04-23T08:40:25.305Z,8.60
2023-04-23T08:43:04.121Z,7.30
2023-04-23T08:45:36.009Z,12.60
2023-04-23T08:48:06.746Z,10.70
2023-04-23T08:50:37.748Z,11.15
2023-04-23T08:53:08.806Z,14.75
2023-04-23T08:55:38.396Z,7.15
2023-04-23T08:58:08.194Z,8.20
2023-04-23T09:00:37.235Z,6.65
2023-04-23T09:03:07.555Z,15.38
2023-04-23T09:05:36.690Z,10.63
2023-04-23T09:08:06.279Z,7.15
2023-04-23T09:10:38.797Z,3.97
2023-04-23T09:13:08.015Z,15.48
2023-04-23T09:15:40.648Z,7.13
2023-04-23T09:18:09.943Z,13.50
2023-04-23T09:20:38.868Z,25.60
2023-04-23T09:23:15.249Z,9.73
2023-04-23T09:25:44.467Z,3.17
2023-04-23T09:28:13.253Z,9.65
2023-04-23T09:30:50.091Z,3.70
2023-04-23T09:33:19.274Z,5.85
2023-04-23T09:35:49.936Z,5.93
2023-04-23T09:38:21.426Z,13.98
2023-04-23T09:40:52.040Z,16.05
2023-04-23T09:43:21.302Z,10.20
2023-04-23T09:45:51.510Z,6.22
2023-04-23T09:48:22.928Z,17.27
2023-04-23T09:50:51.990Z,8.98
2023-04-23T09:53:21.416Z,9.40
2023-04-23T09:55:54.335Z,36.63
2023-04-23T09:58:28.932Z,11.15
2023-04-23T10:01:09.251Z,20.13
2023-04-23T10:03:43.371Z,3.42
2023-04-23T10:06:37.004Z,9.10
2023-04-23T10:09:08.912Z,9.75
2023-04-23T10:11:39.360Z,7.38
2023-04-23T10:14:10.210Z,11.45
2023-04-23T10:16:48.724Z,11.27
2023-04-23T10:19:26.608Z,8.32
2023-04-23T10:22:08.612Z,4.78
2023-04-23T10:24:50.046Z,7.17
2023-04-23T10:29:52.772Z,45.22
2023-04-23T10:32:22.887Z,14.43
2023-04-23T10:34:53.423Z,14.27
2023-04-23T10:37:23.664Z,4.68
2023-04-23T10:39:57.190Z,15.38
2023-04-23T10:42:27.041Z,6.00
2023-04-23T10:45:07.114Z,9.13
2023-04-23T10:47:39.393Z,9.07
2023-04-23T10:50:23.120Z,11.88
2023-04-23T10:52:55.108Z,19.85
2023-04-23T10:55:29.363Z,6.10
2023-04-23T10:58:09.136Z,8.73
2023-04-23T11:00:47.175Z,21.27
2023-04-23T11:03:43.165Z,7.78
2023-04-23T11:06:21.997Z,3.70
2023-04-23T11:08:55.372Z,5.03
2023-04-23T11:11:41.375Z,8.82
2023-04-23T11:14:17.124Z,5.82
2023-04-23T11:16:46.461Z,4.25
2023-04-23T11:19:19.873Z,3.33
2023-04-23T11:22:00.243Z,6.28
2023-04-23T11:24:34.615Z,8.60
2023-04-23T11:27:07.686Z,8.25
2023-04-23T11:29:38.873Z,5.82
2023-04-23T11:32:15.213Z,4.05
2023-04-23T11:34:46.682Z,2.88
2023-04-23T11:37:17.829Z,6.40
2023-04-23T11:39:48.423Z,14.27
2023-04-23T11:42:18.407Z,9.77
2023-04-23T11:44:48.928Z,9.32
2023-04-23T11:47:19.584Z,7.55
2023-04-23T11:49:50.044Z,10.02
2023-04-23T11:52:18.964Z,15.05
2023-04-23T11:54:47.981Z,7.30
2023-04-23T11:57:17.367Z,8.13
2023-04-23T11:59:46.426Z,6.05
2023-04-23T12:02:15.353Z,12.95
2023-04-23T12:04:45.644Z,10.38
2023-04-23T12:07:25.810Z,15.98
2023-04-23T12:10:02.416Z,9.50
2023-04-23T12:12:37.093Z,10.50
2023-04-23T12:15:11.076Z,11.43
2023-04-23T12:17:40.121Z,3.38
2023-04-23T12:20:14.444Z,29.48
2023-04-23T12:22:43.579Z,8.13
2023-04-23T12:25:12.779Z,5.93
2023-04-23T12:27:43.533Z,12.70
2023-04-23T12:30:13.934Z,10.57
2023-04-23T12:32:43.014Z,9.45
2023-04-23T12:35:13.105Z,9.30
2023-04-23T12:37:42.783Z,7.60
2023-04-23T12:40:12.278Z,7.68
2023-04-23T12:42:41.279Z,16.13
2023-04-23T12:45:11.358Z,13.70
2023-04-23T12:47:40.405Z,11.18
2023-04-23T12:50:09.987Z,24.00
2023-04-23T12:52:39.470Z,7.97
2023-04-23T12:55:08.640Z,16.92
2023-04-23T12:57:37.804Z,19.63
2023-04-23T13:00:07.176Z,10.82
2023-04-23T13:02:36.421Z,13.80
2023-04-23T13:05:05.793Z,21.20
2023-04-23T13:07:34.929Z,9.50
2023-04-23T13:10:03.826Z,13.95
2023-04-23T13:12:33.402Z,13.52
2023-04-23T13:15:02.412Z,16.00
2023-04-23T13:17:31.723Z,15.75
2023-04-23T13:20:00.866Z,18.90
2023-04-23T13:22:30.937Z,26.33
2023-04-23T13:25:01.182Z,17.00
2023-04-23T13:27:31.864Z,23.38
2023-04-23T13:30:01.376Z,16.42
2023-04-23T13:32:35.222Z,28.63
2023-04-23T13:35:05.982Z,17.50
2023-04-23T13:37:35.104Z,24.92
2023-04-23T13:40:05.450Z,21.13
2023-04-23T13:42:35.299Z,45.38
2023-04-23T13:45:07.267Z,70.38
2023-04-23T13:47:36.890Z,39.97
2023-04-23T13:50:07.965Z,55.05
2023-04-23T13:52:38.429Z,44.92
2023-04-23T13:55:09.116Z,35.53
2023-04-23T13:57:39.299Z,67.22
2023-04-23T14:00:09.906Z,47.30
2023-04-23T14:02:40.169Z,37.83
2023-04-23T14:05:10.257Z,40.38
2023-04-23T14:07:39.184Z,37.42
2023-04-23T14:10:08.845Z,30.10
2023-04-23T14:12:38.588Z,34.63
2023-04-23T14:15:09.211Z,33.33
2023-04-23T14:17:41.791Z,39.20
2023-04-23T14:20:11.718Z,33.40
2023-04-23T14:22:40.991Z,25.95
2023-04-23T14:25:16.012Z,35.25
2023-04-23T14:27:53.125Z,26.10
2023-04-23T14:30:27.441Z,31.55
2023-04-23T14:32:57.577Z,37.17
2023-04-23T14:35:39.495Z,32.95
2023-04-23T14:38:11.566Z,33.83
2023-04-23T14:40:40.769Z,27.90
2023-04-23T14:43:15.534Z,20.05
2023-04-23T14:45:45.958Z,24.20
2023-04-23T14:48:14.910Z,19.63
2023-04-23T14:50:44.023Z,22.45
2023-04-23T14:53:13.079Z,28.77
2023-04-23T14:55:44.156Z,23.65
2023-04-23T14:58:13.436Z,26.00
2023-04-23T15:00:42.563Z,31.25
2023-04-23T15:03:11.943Z,33.08
2023-04-23T15:05:42.970Z,33.97
2023-04-23T15:08:12.049Z,46.70
2023-04-23T15:10:41.388Z,40.55
2023-04-23T15:13:31.428Z,29.08
2023-04-23T15:16:05.585Z,40.22
2023-04-23T15:18:35.339Z,42.50
2023-04-23T15:21:04.718Z,52.58
2023-04-23T15:23:34.273Z,53.28
2023-04-23T15:26:04.698Z,43.63
2023-04-23T15:28:33.867Z,39.65
2023-04-23T15:31:02.798Z,30.70
2023-04-23T15:33:32.226Z,45.50
2023-04-23T15:36:01.155Z,54.20
2023-04-23T15:38:30.308Z,60.97
2023-04-23T15:40:59.461Z,43.05
2023-04-23T15:43:28.743Z,59.25
2023-04-23T15:45:59.970Z,54.25
2023-04-23T15:48:29.611Z,61.00
2023-04-23T15:50:59.038Z,40.78
2023-04-23T15:53:29.420Z,43.25
2023-04-23T15:55:58.799Z,37.13
2023-04-23T15:58:27.731Z,42.42
2023-04-23T16:00:57.437Z,50.15
2023-04-23T16:03:26.869Z,74.15
2023-04-23T16:05:55.981Z,68.72
2023-04-23T16:08:25.018Z,44.78
2023-04-23T16:10:54.478Z,39.08
2023-04-23T16:13:24.150Z,34.72
2023-04-23T16:15:54.301Z,33.45
2023-04-23T16:18:23.700Z,33.30
2023-04-23T16:20:52.700Z,39.20
2023-04-23T16:23:22.013Z,29.42
2023-04-23T16:25:51.201Z,20.20
2023-04-23T16:28:20.516Z,47.15
2023-04-23T16:30:50.293Z,33.05
2023-04-23T16:33:19.471Z,52.33
2023-04-23T16:35:48.791Z,50.47
2023-04-23T16:38:18.362Z,50.17
2023-04-23T16:40:48.551Z,46.33
2023-04-23T16:43:17.589Z,47.70
2023-04-23T16:45:47.142Z,37.35
2023-04-23T16:48:17.882Z,42.20
2023-04-23T16:50:47.052Z,44.50
2023-04-23T16:53:16.248Z,51.33
2023-04-23T16:55:45.959Z,43.83
2023-04-23T16:58:15.188Z,57.63
2023-04-23T17:00:45.918Z,60.63
2023-04-23T17:03:15.374Z,38.22
2023-04-23T17:05:45.094Z,41.83
2023-04-23T17:08:14.073Z,41.90
2023-04-23T17:10:43.738Z,46.28
2023-04-23T17:13:12.773Z,30.70
2023-04-23T17:15:42.539Z,37.33
2023-04-23T17:18:12.557Z,32.60
2023-04-23T17:20:42.000Z,62.17
2023-04-23T17:23:11.035Z,53.35
2023-04-23T17:25:40.004Z,50.33
2023-04-23T17:28:09.873Z,64.22
2023-04-23T17:30:39.302Z,56.10
2023-04-23T17:33:08.347Z,37.60
2023-04-23T17:35:38.197Z,48.53
2023-04-23T17:38:07.135Z,42.78
2023-04-23T17:40:37.405Z,21.75
2023-04-23T17:43:07.862Z,36.63
2023-04-23T17:45:36.640Z,39.90
2023-04-23T17:48:06.581Z,31.48
2023-04-23T17:50:36.086Z,104.20
2023-04-23T17:53:06.133Z,68.45
2023-04-23T17:55:35.292Z,49.10
2023-04-23T17:58:08.027Z,135.38
2023-04-23T18:00:38.509Z,79.22
2023-04-23T18:03:09.799Z,64.53
2023-04-23T18:05:38.985Z,63.33
2023-04-23T18:08:09.130Z,45.38
2023-04-23T18:10:39.280Z,56.28
2023-04-23T18:13:12.380Z,45.25
2023-04-23T18:15:46.871Z,40.38
2023-04-23T18:18:15.862Z,52.95
2023-04-23T18:20:47.277Z,124.07
2023-04-23T18:23:16.946Z,101.15
2023-04-23T18:25:45.780Z,89.00
2023-04-23T18:28:15.798Z,78.53
2023-04-23T18:30:44.688Z,59.00
2023-04-23T18:33:17.835Z,56.85
2023-04-23T18:35:49.622Z,52.95
2023-04-23T18:38:38.482Z,64.75
2023-04-23T18:41:07.515Z,119.75
2023-04-23T18:43:36.271Z,86.88
2023-04-23T18:46:05.715Z,78.30
2023-04-23T18:48:34.520Z,82.55
2023-04-23T18:51:15.461Z,87.82
2023-04-23T18:53:44.583Z,74.55
2023-04-23T18:56:13.472Z,71.22
2023-04-23T18:58:42.718Z,50.83
2023-04-23T19:01:11.711Z,67.85
2023-04-23T19:03:40.877Z,49.35
2023-04-23T19:06:10.070Z,101.68
2023-04-23T19:08:39.885Z,163.65
2023-04-23T19:11:09.272Z,181.70
2023-04-23T19:13:38.223Z,98.38
2023-04-23T19:16:07.711Z,200.25
2023-04-23T19:18:37.231Z,126.72
2023-04-23T19:21:07.196Z,212.95
2023-04-23T19:23:36.105Z,974.90
2023-04-23T19:26:07.656Z,839.75
2023-04-23T19:28:36.836Z,670.08
2023-04-23T19:31:05.761Z,383.30
2023-04-23T19:33:36.311Z,239.30
2023-04-23T19:36:05.633Z,106.80
2023-04-23T19:38:34.662Z,90.97
2023-04-23T19:41:05.613Z,60.05
2023-04-23T19:43:34.601Z,53.10
2023-04-23T19:46:03.539Z,49.08
2023-04-23T19:48:32.742Z,55.25
2023-04-23T19:51:01.804Z,67.53
2023-04-23T19:53:31.147Z,90.13
2023-04-23T19:56:00.320Z,83.60
2023-04-23T19:58:29.347Z,119.00
2023-04-23T20:00:59.099Z,75.25
2023-04-23T20:03:30.675Z,67.47
2023-04-23T20:06:00.390Z,58.83
2023-04-23T20:08:42.780Z,51.85
2023-04-23T20:11:12.547Z,51.83
2023-04-23T20:13:44.302Z,48.53
2023-04-23T20:16:14.402Z,61.05
2023-04-23T20:18:44.878Z,50.30
2023-04-23T20:21:15.125Z,69.68
2023-04-23T20:23:45.380Z,51.97
2023-04-23T20:26:15.575Z,59.97
2023-04-23T20:28:48.084Z,60.15
2023-04-23T20:33:52.709Z,59.72
2023-04-23T20:36:25.231Z,45.73
2023-04-23T20:38:59.580Z,62.80
2023-04-23T20:41:33.118Z,56.58
2023-04-23T20:44:04.995Z,51.35
2023-04-23T20:46:40.036Z,52.83
2023-04-23T20:51:41.402Z,73.40
2023-04-23T20:54:13.201Z,72.22
2023-04-23T20:56:43.927Z,78.15
2023-04-23T20:59:14.820Z,59.28
2023-04-23T21:01:45.667Z,61.17
2023-04-23T21:04:17.687Z,62.40
2023-04-23T21:06:48.720Z,67.65
2023-04-23T21:09:20.200Z,65.13
2023-04-23T21:11:52.131Z,52.22
2023-04-23T21:14:22.726Z,54.28
2023-04-23T21:16:54.721Z,63.55
2023-04-23T21:19:26.625Z,124.82
2023-04-23T21:21:57.401Z,144.55
2023-04-23T21:24:27.968Z,248.18
2023-04-23T21:26:59.039Z,377.65
2023-04-23T21:29:30.093Z,118.93
2023-04-23T21:32:01.343Z,69.55
2023-04-23T21:34:32.148Z,197.70
2023-04-23T21:37:03.068Z,135.02
2023-04-23T21:39:34.567Z,89.18
2023-04-23T21:42:05.420Z,465.33
2023-04-23T21:44:41.845Z,386.42
2023-04-23T21:47:12.453Z,350.35
2023-04-23T21:49:45.374Z,163.05
2023-04-23T21:52:16.255Z,96.25
2023-04-23T21:54:47.078Z,81.43
2023-04-23T21:57:17.794Z,84.55
2023-04-23T21:59:49.412Z,93.07
2023-04-23T22:02:20.742Z,98.72
2023-04-23T22:04:52.197Z,108.53
2023-04-23T22:07:22.964Z,84.57
2023-04-23T22:09:53.963Z,108.97
2023-04-23T22:12:25.549Z,85.28
2023-04-23T22:14:57.448Z,96.55
2023-04-23T22:17:31.624Z,84.37
2023-04-23T22:20:02.525Z,103.40
2023-04-23T22:22:34.022Z,86.13
2023-04-23T22:25:13.833Z,77.47
2023-04-23T22:27:45.646Z,91.90
2023-04-23T22:30:17.700Z,82.00
2023-04-23T22:32:48.735Z,86.20
2023-04-23T22:35:20.138Z,84.72
2023-04-23T22:37:50.880Z,75.25
2023-04-23T22:40:22.800Z,78.93
2023-04-23T22:42:53.619Z,54.50
2023-04-23T22:45:25.259Z,63.40
2023-04-23T22:47:56.664Z,62.83
2023-04-23T22:50:28.153Z,74.90
2023-04-23T22:52:58.954Z,65.47
2023-04-23T22:55:29.580Z,68.90
2023-04-23T22:58:00.382Z,80.55
2023-04-23T23:00:31.210Z,69.78
2023-04-23T23:03:03.089Z,82.57
2023-04-23T23:05:33.912Z,88.05
2023-04-23T23:08:04.658Z,89.13
2023-04-23T23:13:16.264Z,83.55
2023-04-23T23:15:48.169Z,82.57
2023-04-23T23:18:19.809Z,85.53
2023-04-23T23:20:50.713Z,84.67
2023-04-23T23:23:23.048Z,86.82
2023-04-23T23:25:53.487Z,83.68
2023-04-23T23:28:27.588Z,92.70
2023-04-23T23:30:59.535Z,114.57
2023-04-23T23:33:30.484Z,127.20
2023-04-23T23:36:01.443Z,121.63
2023-04-23T23:38:32.486Z,161.30
2023-04-23T23:41:03.170Z,125.38
2023-04-23T23:43:34.996Z,127.03
2023-04-23T23:46:05.874Z,131.02
2023-04-23T23:48:46.725Z,124.57
2023-04-23T23:51:17.773Z,155.00
2023-04-23T23:53:48.549Z,172.68
2023-04-23T23:56:19.424Z,162.35
2023-04-23T23:58:50.994Z,166.07
